Time;durP1;ratioP1;P1;durP2;ratioP2;P2;SDS_P1;SDS_P2;PMS_P1;PMS_P2;Temp;Humidity;BMP_temperature;BMP_pressure;BME280_temperature;BME280_humidity;BME280_pressure;Samples;Min_cycle;Max_cycle;Signal;HPM_P1;HPM_P2
2022/01/30 00:00:57;;;;;;;29.67;6.35;;;;;;;5.11;100.00;102540.81;5091110;28;20031;-71
2022/01/30 00:03:23;;;;;;;35.08;6.75;;;;;;;5.05;100.00;102544.00;5089142;28;20805;-70
2022/01/30 00:05:48;;;;;;;33.78;6.20;;;;;;;4.98;100.00;102550.66;5091210;28;20559;-70
2022/01/30 00:08:14;;;;;;;29.33;5.43;;;;;;;5.00;100.00;102549.00;5091104;28;20031;-70
2022/01/30 00:10:40;;;;;;;31.55;6.40;;;;;;;5.02;100.00;102557.88;5090594;28;20502;-70
2022/01/30 00:13:11;;;;;;;27.92;6.38;;;;;;;5.04;100.00;102565.81;5089871;28;20036;-70
2022/01/30 00:15:47;;;;;;;33.80;6.43;;;;;;;4.88;100.00;102550.97;5090500;28;20017;-70
2022/01/30 00:20:48;;;;;;;30.80;6.07;;;;;;;4.85;100.00;102554.31;5091131;28;20036;-69
2022/01/30 00:23:23;;;;;;;32.65;6.45;;;;;;;4.71;100.00;102558.78;5086530;28;20024;-76
2022/01/30 00:25:54;;;;;;;31.25;6.28;;;;;;;4.79;100.00;102568.78;5088693;28;20028;-75
2022/01/30 00:28:21;;;;;;;32.28;6.32;;;;;;;4.63;100.00;102572.28;5093941;28;20028;-71
2022/01/30 00:30:47;;;;;;;30.90;5.93;;;;;;;4.63;100.00;102573.19;5094957;28;20032;-76
2022/01/30 00:33:12;;;;;;;31.65;5.82;;;;;;;4.56;100.00;102572.75;5094339;28;20412;-74
2022/01/30 00:35:38;;;;;;;34.08;7.03;;;;;;;4.46;100.00;102580.09;5094637;28;20024;-71
2022/01/30 00:38:06;;;;;;;34.22;6.38;;;;;;;4.48;100.00;102573.22;5093822;28;20020;-74
2022/01/30 00:40:31;;;;;;;30.30;6.07;;;;;;;4.50;100.00;102574.22;5093943;28;20035;-75
2022/01/30 00:42:57;;;;;;;33.25;6.57;;;;;;;4.46;100.00;102568.72;5094438;28;20024;-75
2022/01/30 00:45:22;;;;;;;32.30;6.15;;;;;;;4.52;100.00;102574.31;5094408;28;20390;-76
2022/01/30 00:47:48;;;;;;;32.05;5.85;;;;;;;4.37;100.00;102566.47;5094052;28;20038;-76
2022/01/30 00:50:13;;;;;;;31.00;6.15;;;;;;;4.46;100.00;102569.63;5094328;28;20027;-74
2022/01/30 00:52:39;;;;;;;28.05;5.70;;;;;;;4.44;100.00;102566.03;5093535;28;20035;-73
2022/01/30 00:55:04;;;;;;;34.10;6.90;;;;;;;4.38;100.00;102573.50;5093956;28;20028;-73
2022/01/30 00:57:30;;;;;;;34.35;6.80;;;;;;;4.33;100.00;102582.81;5091772;28;20040;-73
2022/01/30 00:59:55;;;;;;;32.00;6.35;;;;;;;4.31;100.00;102584.44;5094021;28;20107;-74
2022/01/30 01:02:21;;;;;;;33.85;6.35;;;;;;;4.16;100.00;102580.09;5094175;28;20540;-77
2022/01/30 01:04:47;;;;;;;31.10;6.15;;;;;;;4.10;100.00;102589.34;5093551;28;20387;-75
2022/01/30 01:07:18;;;;;;;30.83;6.30;;;;;;;4.09;100.00;102590.16;5093169;28;20107;-76
2022/01/30 01:09:52;;;;;;;32.13;6.32;;;;;;;4.00;100.00;102585.28;5093705;28;20112;-75
2022/01/30 01:23:29;;;;;;;31.88;6.65;;;;;;;3.93;100.00;102591.88;5093971;28;20039;-75
2022/01/30 01:25:57;;;;;;;32.28;6.50;;;;;;;3.84;100.00;102600.09;5093466;28;20386;-75
2022/01/30 01:28:22;;;;;;;36.08;6.32;;;;;;;3.74;100.00;102602.97;5092431;28;20103;-73
2022/01/30 01:30:48;;;;;;;36.78;6.72;;;;;;;3.72;100.00;102594.09;5093519;28;20439;-72
2022/01/30 01:33:14;;;;;;;35.90;6.82;;;;;;;3.66;100.00;102612.03;5093697;28;20028;-75
2022/01/30 01:35:40;;;;;;;33.28;6.50;;;;;;;3.62;100.00;102615.28;5093143;28;20150;-74
2022/01/30 01:38:10;;;;;;;35.47;6.68;;;;;;;3.58;100.00;102616.81;5092351;28;20055;-74
2022/01/30 01:40:37;;;;;;;34.83;6.65;;;;;;;3.61;100.00;102618.69;5090741;28;20476;-73
2022/01/30 01:43:02;;;;;;;31.08;6.40;;;;;;;3.70;100.00;102616.66;5092723;28;20038;-76
2022/01/30 01:45:33;;;;;;;34.40;6.65;;;;;;;3.85;100.00;102606.22;5092981;28;20020;-75
2022/01/30 01:48:02;;;;;;;36.47;7.05;;;;;;;3.95;100.00;102616.41;5092979;28;20032;-73
2022/01/30 01:50:38;;;;;;;31.00;6.45;;;;;;;3.87;100.00;102611.53;5092190;28;20375;-73
2022/01/30 01:53:08;;;;;;;33.60;6.60;;;;;;;3.95;100.00;102613.78;5092372;28;20429;-76
2022/01/30 01:55:33;;;;;;;32.30;6.75;;;;;;;3.94;100.00;102621.56;5092969;28;20032;-75
2022/01/30 01:57:59;;;;;;;29.83;6.18;;;;;;;3.91;100.00;102618.75;5092591;28;20039;-73
2022/01/30 02:00:24;;;;;;;33.28;6.65;;;;;;;3.83;100.00;102618.31;5092710;28;20024;-72
2022/01/30 02:02:49;;;;;;;32.03;6.82;;;;;;;3.71;100.00;102623.69;5092606;28;20112;-71
2022/01/30 02:05:15;;;;;;;32.75;6.75;;;;;;;3.47;100.00;102617.88;5092248;28;20057;-71
2022/01/30 02:13:12;;;;;;;34.88;7.05;;;;;;;3.19;100.00;102607.38;5092681;28;20036;-70
2022/01/30 02:24:18;;;;;;;34.53;7.07;;;;;;;2.69;100.00;102601.66;5092386;28;20093;-70
2022/01/30 02:26:45;;;;;;;37.92;6.95;;;;;;;2.66;100.00;102598.84;5091702;28;20032;-70
2022/01/30 02:29:11;;;;;;;33.45;6.72;;;;;;;2.65;100.00;102597.06;5091663;28;20028;-71
2022/01/30 02:31:39;;;;;;;39.20;7.97;;;;;;;2.72;100.00;102612.34;5091941;28;20038;-70
2022/01/30 02:34:05;;;;;;;35.25;7.30;;;;;;;2.82;100.00;102607.69;5092287;28;20020;-70
2022/01/30 02:36:31;;;;;;;35.55;6.72;;;;;;;2.80;100.00;102604.97;5090694;28;20538;-70
2022/01/30 02:39:00;;;;;;;35.85;7.20;;;;;;;2.74;100.00;102608.09;5088924;28;20033;-70
2022/01/30 02:41:26;;;;;;;33.67;6.95;;;;;;;2.85;100.00;102605.25;5089267;28;20051;-70
2022/01/30 02:46:40;;;;;;;33.78;7.05;;;;;;;2.90;100.00;102603.88;5091668;28;20111;-70
2022/01/30 02:51:50;;;;;;;34.05;6.65;;;;;;;3.05;100.00;102596.97;5091891;28;20032;-70
2022/01/30 02:54:16;;;;;;;42.00;7.53;;;;;;;3.17;100.00;102595.94;5089845;28;20024;-70
2022/01/30 02:56:42;;;;;;;35.50;7.15;;;;;;;3.09;100.00;102596.38;5091542;28;20097;-70
2022/01/30 02:59:07;;;;;;;36.38;6.82;;;;;;;3.08;100.00;102604.13;5091805;28;20059;-70
2022/01/30 03:01:33;;;;;;;34.58;6.47;;;;;;;2.97;100.00;102606.97;5091800;28;20024;-70
2022/01/30 03:03:59;;;;;;;31.90;6.35;;;;;;;2.90;100.00;102609.09;5089445;28;20462;-71
2022/01/30 03:06:25;;;;;;;32.13;6.80;;;;;;;2.79;100.00;102618.84;5087245;28;20470;-70
2022/01/30 03:08:50;;;;;;;38.50;6.97;;;;;;;2.64;100.00;102631.81;5091722;28;20078;-70
2022/01/30 03:11:15;;;;;;;34.08;6.70;;;;;;;2.53;100.00;102636.31;5090978;28;20047;-74
2022/01/30 03:13:41;;;;;;;32.60;7.00;;;;;;;2.49;100.00;102630.78;5087405;28;20024;-75
2022/01/30 03:16:06;;;;;;;35.08;6.60;;;;;;;2.44;100.00;102633.09;5090961;28;20364;-74
2022/01/30 03:18:32;;;;;;;39.80;6.75;;;;;;;2.44;100.00;102641.81;5091019;28;20020;-71
2022/01/30 03:20:57;;;;;;;38.38;7.00;;;;;;;2.49;100.00;102638.63;5091325;28;20036;-73
2022/01/30 03:23:23;;;;;;;36.45;7.07;;;;;;;2.59;100.00;102643.66;5091599;28;20039;-72
2022/01/30 03:25:56;;;;;;;33.97;7.22;;;;;;;2.68;100.00;102643.34;5091102;28;20027;-74
2022/01/30 03:28:22;;;;;;;32.72;6.65;;;;;;;2.84;100.00;102647.84;5090448;28;20028;-72
2022/01/30 03:30:52;;;;;;;33.80;6.53;;;;;;;2.94;100.00;102645.03;5088231;28;20069;-76
2022/01/30 03:33:18;;;;;;;32.97;6.43;;;;;;;3.01;100.00;102649.84;5089233;28;20104;-76
2022/01/30 03:35:43;;;;;;;33.42;6.70;;;;;;;3.09;100.00;102653.88;5091654;28;20165;-73
2022/01/30 03:38:09;;;;;;;37.13;7.22;;;;;;;3.14;100.00;102662.88;5091045;28;20052;-74
2022/01/30 03:40:34;;;;;;;34.28;6.85;;;;;;;3.20;100.00;102672.81;5091036;28;20462;-73
2022/01/30 03:42:59;;;;;;;32.38;6.45;;;;;;;3.21;100.00;102668.53;5087560;28;20042;-73
2022/01/30 03:45:25;;;;;;;31.52;6.60;;;;;;;3.26;100.00;102669.69;5086986;28;20028;-72
2022/01/30 03:47:55;;;;;;;34.55;6.85;;;;;;;3.23;100.00;102685.19;5089685;28;20020;-75
2022/01/30 03:50:21;;;;;;;34.20;6.95;;;;;;;3.25;100.00;102691.44;5090909;28;20471;-73
2022/01/30 03:52:46;;;;;;;36.03;7.30;;;;;;;3.22;100.00;102689.53;5090917;28;20024;-76
2022/01/30 03:55:11;;;;;;;32.00;6.60;;;;;;;3.22;100.00;102701.69;5089809;28;20149;-73
2022/01/30 03:57:37;;;;;;;33.80;6.20;;;;;;;3.17;100.00;102679.59;5087221;28;20033;-72
2022/01/30 04:00:04;;;;;;;31.55;6.57;;;;;;;3.22;100.00;102691.22;5088329;28;20035;-76
2022/01/30 04:02:29;;;;;;;32.28;6.50;;;;;;;3.12;100.00;102692.38;5094694;28;20028;-71
2022/01/30 04:04:54;;;;;;;33.05;6.72;;;;;;;3.05;100.00;102685.81;5094745;28;20020;-70
2022/01/30 04:07:20;;;;;;;35.70;7.45;;;;;;;2.95;100.00;102696.50;5094719;28;20019;-70
2022/01/30 04:09:46;;;;;;;34.22;6.60;;;;;;;2.96;100.00;102698.31;5094652;28;20068;-70
2022/01/30 04:12:13;;;;;;;33.10;7.43;;;;;;;3.03;100.00;102694.38;5092754;28;20040;-71
2022/01/30 04:14:38;;;;;;;36.17;7.05;;;;;;;3.08;100.00;102709.53;5095239;28;20031;-70
2022/01/30 04:17:07;;;;;;;35.45;6.75;;;;;;;3.10;100.00;102702.72;5094129;28;20027;-70
2022/01/30 04:19:32;;;;;;;33.38;7.03;;;;;;;3.17;100.00;102713.56;5094661;28;20212;-70
2022/01/30 04:21:58;;;;;;;35.08;7.13;;;;;;;3.19;100.00;102710.25;5095381;28;20111;-70
2022/01/30 04:24:23;;;;;;;38.25;7.60;;;;;;;3.24;100.00;102711.44;5094532;28;20024;-72
2022/01/30 04:26:48;;;;;;;34.33;6.65;;;;;;;3.26;100.00;102709.84;5094333;28;20032;-71
2022/01/30 04:29:14;;;;;;;34.10;6.85;;;;;;;3.31;100.00;102711.00;5094375;28;20055;-71
2022/01/30 04:31:41;;;;;;;36.45;7.07;;;;;;;3.33;100.00;102716.34;5094864;28;20036;-72
2022/01/30 04:34:07;;;;;;;30.85;6.93;;;;;;;3.34;100.00;102718.16;5094724;28;20024;-70
2022/01/30 04:36:39;;;;;;;33.90;6.68;;;;;;;3.35;100.00;102717.38;5094401;28;20394;-70
2022/01/30 04:39:16;;;;;;;37.63;7.40;;;;;;;3.34;100.00;102712.94;5094207;28;20028;-69
2022/01/30 05:08:06;;;;;;;32.15;6.28;;;;;;;3.09;100.00;102749.66;5092373;28;20382;-70
2022/01/30 05:10:32;;;;;;;30.10;6.03;;;;;;;2.96;100.00;102746.22;5093752;28;20483;-70
2022/01/30 05:13:00;;;;;;;34.30;6.40;;;;;;;2.86;100.00;102759.50;5092299;28;20020;-71
2022/01/30 05:15:28;;;;;;;35.97;6.72;;;;;;;2.84;100.00;102760.19;5093785;28;20441;-70
2022/01/30 05:17:54;;;;;;;33.28;6.53;;;;;;;2.75;100.00;102764.03;5092886;28;20036;-71
2022/01/30 05:20:20;;;;;;;32.58;6.22;;;;;;;2.66;100.00;102762.47;5092464;28;20127;-71
2022/01/30 05:22:45;;;;;;;32.05;6.75;;;;;;;2.51;100.00;102757.16;5093588;28;20544;-70
2022/01/30 05:25:11;;;;;;;34.53;6.65;;;;;;;2.60;100.00;102769.09;5093464;28;20046;-70
2022/01/30 05:27:37;;;;;;;35.22;6.55;;;;;;;2.53;100.00;102759.03;5090776;28;20028;-70
2022/01/30 05:30:04;;;;;;;32.05;6.10;;;;;;;2.44;100.00;102756.69;5092251;28;20024;-71
2022/01/30 05:32:30;;;;;;;34.00;6.75;;;;;;;2.37;100.00;102750.97;5092109;28;20057;-70
2022/01/30 05:34:56;;;;;;;34.17;6.50;;;;;;;2.32;100.00;102753.28;5093497;28;20095;-71
2022/01/30 05:37:22;;;;;;;33.22;6.18;;;;;;;2.33;100.00;102760.31;5093023;28;20455;-70
2022/01/30 05:39:48;;;;;;;33.22;5.60;;;;;;;2.30;100.00;102756.56;5090050;28;20024;-70
2022/01/30 05:42:14;;;;;;;30.10;5.95;;;;;;;2.37;100.00;102757.09;5090177;28;20020;-71
2022/01/30 05:44:56;;;;;;;32.97;6.60;;;;;;;2.34;100.00;102759.50;5093143;28;20028;-70
2022/01/30 05:47:38;;;;;;;33.53;6.38;;;;;;;2.29;100.00;102765.19;5092901;28;20472;-71
2022/01/30 05:50:04;;;;;;;32.72;6.65;;;;;;;2.18;100.00;102770.56;5093405;28;20032;-70
2022/01/30 05:52:29;;;;;;;34.45;5.90;;;;;;;2.03;100.00;102770.44;5092716;28;20039;-70
2022/01/30 05:54:55;;;;;;;34.05;6.20;;;;;;;1.98;100.00;102776.13;5092214;28;20228;-71
2022/01/30 05:57:20;;;;;;;34.83;6.20;;;;;;;1.91;100.00;102775.69;5092889;28;20931;-70
2022/01/30 05:59:45;;;;;;;36.25;6.22;;;;;;;1.85;100.00;102772.66;5092803;28;20433;-69
2022/01/30 06:02:11;;;;;;;32.83;6.03;;;;;;;1.84;100.00;102772.56;5092646;28;20020;-70
2022/01/30 06:04:36;;;;;;;33.45;6.00;;;;;;;1.83;100.00;102775.94;5092974;28;20060;-70
2022/01/30 06:07:02;;;;;;;34.00;6.30;;;;;;;1.84;100.00;102782.97;5087540;28;20028;-70
2022/01/30 06:09:27;;;;;;;30.63;6.00;;;;;;;1.83;100.00;102784.66;5087637;28;20024;-75
2022/01/30 06:11:53;;;;;;;30.20;5.45;;;;;;;1.85;100.00;102788.31;5091915;28;20067;-70
2022/01/30 06:14:20;;;;;;;30.30;5.82;;;;;;;1.84;100.00;102789.09;5092046;28;20066;-69
2022/01/30 06:16:45;;;;;;;31.65;5.68;;;;;;;1.96;100.00;102791.66;5092003;28;20123;-68
2022/01/30 06:19:11;;;;;;;30.50;4.93;;;;;;;1.93;100.00;102788.84;5091870;28;20104;-68
2022/01/30 06:21:36;;;;;;;30.85;5.53;;;;;;;1.97;100.00;102785.66;5092205;28;20114;-68
2022/01/30 06:24:02;;;;;;;31.52;5.75;;;;;;;2.14;100.00;102778.09;5092104;28;20063;-71
2022/01/30 06:26:28;;;;;;;27.85;5.25;;;;;;;2.29;100.00;102779.16;5091810;28;20067;-71
2022/01/30 06:28:53;;;;;;;28.38;5.07;;;;;;;2.31;100.00;102781.88;5091676;28;20070;-77
2022/01/30 06:31:18;;;;;;;31.38;5.68;;;;;;;2.33;100.00;102783.81;5091846;28;20034;-76
2022/01/30 06:33:44;;;;;;;30.00;5.63;;;;;;;2.38;100.00;102786.72;5092254;28;20107;-76
2022/01/30 06:36:10;;;;;;;31.88;5.63;;;;;;;2.43;100.00;102791.47;5088928;28;20024;-71
2022/01/30 06:38:36;;;;;;;28.13;5.20;;;;;;;2.46;100.00;102782.91;5092494;28;20020;-77
2022/01/30 06:41:01;;;;;;;31.27;5.53;;;;;;;2.57;100.00;102784.56;5091867;28;20020;-74
2022/01/30 06:43:26;;;;;;;28.75;5.43;;;;;;;2.65;100.00;102787.72;5091352;28;20024;-71
2022/01/30 06:45:52;;;;;;;28.83;5.18;;;;;;;2.73;100.00;102785.59;5092284;28;20103;-72
2022/01/30 06:48:19;;;;;;;27.98;5.32;;;;;;;2.81;100.00;102794.88;5091803;28;20023;-75
2022/01/30 06:50:45;;;;;;;29.75;5.10;;;;;;;2.87;100.00;102802.19;5091981;28;20043;-73
2022/01/30 06:53:10;;;;;;;28.80;4.90;;;;;;;2.97;100.00;102796.78;5091951;28;20205;-72
2022/01/30 06:55:39;;;;;;;28.80;4.90;;;;;;;3.02;100.00;102804.94;5091264;28;20398;-73
2022/01/30 06:58:05;;;;;;;31.23;5.35;;;;;;;2.99;100.00;102809.97;5091419;28;20406;-74
2022/01/30 07:00:30;;;;;;;28.33;4.88;;;;;;;2.90;100.00;102808.53;5091665;28;20024;-73
2022/01/30 07:02:55;;;;;;;28.48;5.20;;;;;;;2.78;100.00;102808.63;5091797;28;20024;-76
2022/01/30 07:05:21;;;;;;;26.25;4.65;;;;;;;2.78;100.00;102818.16;5092074;28;20047;-74
2022/01/30 07:07:46;;;;;;;29.20;5.30;;;;;;;2.67;100.00;102820.03;5091051;28;20043;-73
2022/01/30 07:10:11;;;;;;;29.80;5.30;;;;;;;2.57;100.00;102825.44;5091457;28;20053;-73
2022/01/30 07:12:37;;;;;;;26.83;4.68;;;;;;;2.57;100.00;102825.44;5092009;28;20024;-76
2022/01/30 07:15:02;;;;;;;29.52;5.28;;;;;;;2.55;100.00;102827.94;5091678;28;20386;-76
2022/01/30 07:17:28;;;;;;;29.50;5.47;;;;;;;2.36;100.00;102827.47;5091093;28;20032;-72
2022/01/30 07:19:53;;;;;;;29.95;5.95;;;;;;;2.20;100.00;102833.31;5091210;28;20108;-72
2022/01/30 07:22:18;;;;;;;31.88;5.65;;;;;;;2.08;100.00;102829.06;5091821;28;20426;-74
2022/01/30 07:24:44;;;;;;;32.35;6.25;;;;;;;1.99;100.00;102836.22;5091285;28;20026;-73
2022/01/30 07:27:09;;;;;;;29.92;5.50;;;;;;;1.92;100.00;102840.13;5091090;28;20032;-74
2022/01/30 07:29:35;;;;;;;32.85;5.50;;;;;;;1.83;100.00;102843.75;5091075;28;20020;-72
2022/01/30 07:32:00;;;;;;;34.05;6.22;;;;;;;1.79;100.00;102833.91;5090786;28;20024;-70
2022/01/30 07:34:26;;;;;;;30.67;5.28;;;;;;;1.75;100.00;102840.63;5091805;28;20028;-74
2022/01/30 07:36:55;;;;;;;29.30;5.75;;;;;;;1.71;100.00;102849.91;5093651;28;20024;-74
2022/01/30 07:39:21;;;;;;;29.05;5.28;;;;;;;1.71;100.00;102852.50;5094060;28;20020;-74
2022/01/30 07:41:47;;;;;;;31.00;5.28;;;;;;;1.85;100.00;102860.41;5095268;28;20549;-74
2022/01/30 07:44:12;;;;;;;29.55;5.28;;;;;;;1.86;100.00;102860.53;5094194;28;20367;-75
2022/01/30 07:46:38;;;;;;;30.42;5.82;;;;;;;1.99;100.00;102871.84;5094876;28;20027;-75
2022/01/30 07:49:03;;;;;;;30.38;5.50;;;;;;;2.12;100.00;102881.47;5094586;28;20085;-74
2022/01/30 07:51:28;;;;;;;30.52;5.40;;;;;;;2.17;100.00;102877.47;5090600;28;20028;-71
2022/01/30 07:53:53;;;;;;;29.35;5.93;;;;;;;2.25;100.00;102871.09;5091958;28;20078;-71
2022/01/30 07:56:19;;;;;;;30.23;5.50;;;;;;;2.28;100.00;102873.03;5093956;28;20028;-72
2022/01/30 07:58:45;;;;;;;30.63;5.80;;;;;;;2.22;100.00;102869.16;5095164;28;20137;-69
2022/01/30 08:01:10;;;;;;;30.60;5.57;;;;;;;2.27;100.00;102869.50;5094819;28;20479;-68
2022/01/30 08:03:36;;;;;;;28.98;5.40;;;;;;;2.25;100.00;102865.88;5093236;28;20012;-69
2022/01/30 08:06:01;;;;;;;31.40;5.35;;;;;;;2.20;100.00;102865.56;5095034;28;20035;-71
2022/01/30 08:08:26;;;;;;;30.08;5.22;;;;;;;2.26;100.00;102865.97;5091961;28;20035;-71
2022/01/30 08:10:52;;;;;;;29.58;5.47;;;;;;;2.25;100.00;102866.78;5093941;28;20051;-71
2022/01/30 08:13:17;;;;;;;29.55;6.10;;;;;;;2.25;100.00;102871.09;5094599;28;20040;-70
2022/01/30 08:15:44;;;;;;;28.63;4.97;;;;;;;2.21;100.00;102874.28;5094773;28;20024;-70
2022/01/30 08:18:10;;;;;;;28.83;5.00;;;;;;;2.21;100.00;102875.22;5094367;28;20394;-71
2022/01/30 08:20:35;;;;;;;30.30;5.35;;;;;;;2.27;100.00;102874.72;5094362;28;20028;-71
2022/01/30 08:23:07;;;;;;;32.10;5.70;;;;;;;2.38;100.00;102888.53;5093000;28;20040;-71
2022/01/30 08:25:32;;;;;;;29.10;5.18;;;;;;;2.50;100.00;102883.25;5094605;28;20028;-71
2022/01/30 08:27:57;;;;;;;29.65;5.60;;;;;;;2.59;100.00;102887.44;5093523;28;20482;-71
2022/01/30 08:30:23;;;;;;;30.50;5.45;;;;;;;2.68;100.00;102886.22;5094979;28;20110;-71
2022/01/30 08:32:49;;;;;;;30.55;5.20;;;;;;;2.81;100.00;102888.00;5092754;28;20390;-71
2022/01/30 08:35:16;;;;;;;29.23;5.30;;;;;;;2.97;100.00;102898.69;5091050;28;20109;-71
2022/01/30 08:37:42;;;;;;;30.45;5.20;;;;;;;3.19;100.00;102900.13;5091257;28;20028;-71
2022/01/30 08:40:10;;;;;;;27.00;4.90;;;;;;;3.47;100.00;102898.56;5092917;28;20028;-72
2022/01/30 08:42:36;;;;;;;28.92;5.60;;;;;;;3.76;100.00;102904.81;5094341;28;20028;-71
2022/01/30 08:45:02;;;;;;;29.15;5.68;;;;;;;3.91;100.00;102890.91;5093892;28;20035;-71
2022/01/30 08:47:27;;;;;;;28.27;5.35;;;;;;;3.89;100.00;102887.28;5093606;28;20051;-71
2022/01/30 08:49:53;;;;;;;28.42;5.50;;;;;;;3.91;100.00;102894.41;5094218;28;20115;-71
2022/01/30 08:52:19;;;;;;;28.15;4.95;;;;;;;3.91;100.00;102896.13;5094200;28;20382;-72
2022/01/30 08:54:46;;;;;;;28.50;5.43;;;;;;;4.01;100.00;102894.19;5094070;28;20077;-71
2022/01/30 08:57:12;;;;;;;28.42;5.03;;;;;;;4.05;100.00;102892.69;5093503;28;20047;-71
2022/01/30 08:59:37;;;;;;;30.58;5.50;;;;;;;4.06;100.00;102896.22;5093374;28;20027;-71
2022/01/30 09:02:03;;;;;;;27.65;4.63;;;;;;;4.15;100.00;102895.09;5093742;28;20024;-71
2022/01/30 09:04:28;;;;;;;28.10;5.10;;;;;;;4.31;100.00;102893.41;5094204;28;20078;-71
2022/01/30 09:06:53;;;;;;;27.02;4.70;;;;;;;4.43;100.00;102888.97;5093042;28;20016;-72
2022/01/30 09:09:19;;;;;;;30.02;5.00;;;;;;;4.59;100.00;102900.38;5093336;28;20020;-71
2022/01/30 09:11:44;;;;;;;32.25;5.68;;;;;;;4.73;100.00;102899.50;5093713;28;20059;-71
2022/01/30 09:14:10;;;;;;;26.65;4.85;;;;;;;4.75;100.00;102913.63;5093907;28;20063;-71
2022/01/30 09:16:35;;;;;;;28.00;4.90;;;;;;;4.79;100.00;102914.69;5092167;28;20062;-71
2022/01/30 09:19:01;;;;;;;30.75;5.50;;;;;;;4.88;99.35;102924.03;5093556;28;20440;-71
2022/01/30 09:21:28;;;;;;;30.05;5.63;;;;;;;5.05;95.25;102925.06;5093127;28;20035;-71
2022/01/30 09:23:54;;;;;;;28.58;5.20;;;;;;;5.08;95.46;102924.31;5093560;28;20028;-71
2022/01/30 09:26:20;;;;;;;28.30;5.15;;;;;;;5.27;94.98;102930.66;5093426;28;20539;-71
2022/01/30 09:28:46;;;;;;;30.83;5.60;;;;;;;5.50;91.78;102924.16;5092147;28;20085;-71
2022/01/30 09:31:11;;;;;;;28.70;5.63;;;;;;;5.55;92.16;102934.09;5093315;28;20031;-72
2022/01/30 09:33:37;;;;;;;28.92;5.13;;;;;;;5.70;91.37;102928.84;5092657;28;20428;-71
2022/01/30 09:36:03;;;;;;;36.33;11.05;;;;;;;5.88;89.62;102929.00;5093108;28;20039;-73
2022/01/30 09:38:29;;;;;;;28.50;5.10;;;;;;;5.84;89.77;102933.97;5093140;28;20413;-71
2022/01/30 09:40:56;;;;;;;28.15;5.00;;;;;;;5.82;88.08;102941.75;5093382;28;20024;-71
2022/01/30 09:43:22;;;;;;;25.15;4.65;;;;;;;5.92;88.28;102946.72;5093153;28;20039;-71
2022/01/30 09:45:49;;;;;;;28.50;5.50;;;;;;;5.86;88.47;102946.38;5092761;28;20118;-71
2022/01/30 09:48:15;;;;;;;27.27;5.68;;;;;;;6.03;88.43;102944.75;5091833;28;20032;-73
2022/01/30 09:50:42;;;;;;;27.23;5.03;;;;;;;6.01;86.74;102946.34;5093135;28;20032;-71
2022/01/30 09:53:07;;;;;;;29.55;5.30;;;;;;;6.05;89.16;102950.06;5093211;28;20028;-71
2022/01/30 09:55:33;;;;;;;28.75;5.47;;;;;;;6.14;88.52;102952.31;5092473;28;20043;-71
2022/01/30 09:57:58;;;;;;;26.50;4.70;;;;;;;6.21;86.17;102950.09;5092356;28;20032;-71
2022/01/30 10:00:23;;;;;;;30.20;5.07;;;;;;;6.23;86.08;102953.75;5092263;28;20039;-71
2022/01/30 10:02:49;;;;;;;28.95;5.57;;;;;;;6.16;85.87;102958.53;5092474;28;20107;-73
2022/01/30 10:05:15;;;;;;;29.65;5.47;;;;;;;6.08;86.03;102953.75;5092783;28;20054;-71
2022/01/30 10:07:53;;;;;;;30.02;5.07;;;;;;;6.33;88.00;102962.13;5092380;28;20020;-72
2022/01/30 10:10:23;;;;;;;30.98;5.50;;;;;;;7.00;85.55;102958.72;5091702;28;20067;-71
2022/01/30 10:13:09;;;;;;;34.47;5.55;;;;;;;7.57;83.73;102962.56;5092434;28;20020;-71
2022/01/30 10:15:49;;;;;;;27.88;5.18;;;;;;;7.58;82.71;102980.13;5090054;28;20047;-72
2022/01/30 10:18:16;;;;;;;28.80;5.50;;;;;;;7.57;80.18;102980.06;5089963;28;20036;-71
2022/01/30 10:20:41;;;;;;;31.73;5.85;;;;;;;7.54;77.73;102977.28;5092223;28;20172;-71
2022/01/30 10:23:10;;;;;;;30.52;5.82;;;;;;;7.27;78.42;102983.81;5092217;28;20095;-72
2022/01/30 10:25:39;;;;;;;30.33;5.30;;;;;;;6.95;80.31;102971.63;5092246;28;20020;-71
2022/01/30 10:28:13;;;;;;;31.27;5.70;;;;;;;7.18;81.53;102978.09;5091205;28;20028;-71
2022/01/30 10:30:50;;;;;;;29.00;5.38;;;;;;;7.08;78.79;102975.81;5092372;28;20025;-71
2022/01/30 10:33:18;;;;;;;29.77;5.65;;;;;;;7.63;77.04;102989.19;5089598;28;20031;-71
2022/01/30 10:35:56;;;;;;;26.83;5.03;;;;;;;8.60;77.41;102978.91;5092269;28;20073;-71
2022/01/30 10:38:27;;;;;;;27.73;4.95;;;;;;;9.32;74.20;102979.53;5090183;28;20051;-71
2022/01/30 10:41:11;;;;;;;28.42;5.22;;;;;;;9.47;72.28;102981.03;5089759;28;20028;-72
2022/01/30 10:43:54;;;;;;;31.00;5.80;;;;;;;9.12;71.59;102975.09;5091642;28;20047;-72
2022/01/30 10:46:21;;;;;;;34.40;6.50;;;;;;;8.88;72.35;102975.78;5086921;28;20040;-71
2022/01/30 10:48:59;;;;;;;28.83;5.75;;;;;;;9.25;71.83;102978.34;5090015;28;20141;-71
2022/01/30 10:51:29;;;;;;;30.75;5.13;;;;;;;9.21;68.97;102972.88;5085648;28;20470;-71
2022/01/30 10:54:04;;;;;;;28.10;5.05;;;;;;;8.72;71.12;102964.56;5091501;28;20032;-72
2022/01/30 10:56:30;;;;;;;29.63;5.95;;;;;;;8.54;73.67;102964.59;5088994;28;20031;-71
2022/01/30 10:59:14;;;;;;;27.75;5.40;;;;;;;9.45;69.69;102969.47;5091786;28;20107;-72
2022/01/30 11:01:45;;;;;;;26.52;5.13;;;;;;;10.15;66.97;102978.50;5089556;28;20181;-72
2022/01/30 11:04:22;;;;;;;26.23;4.68;;;;;;;11.11;66.35;102969.81;5091829;28;20020;-72
2022/01/30 11:06:48;;;;;;;28.58;5.60;;;;;;;11.66;59.91;102970.84;5089450;28;20032;-71
2022/01/30 11:09:19;;;;;;;30.65;5.60;;;;;;;11.27;58.73;102958.03;5091487;28;20031;-74
2022/01/30 11:11:51;;;;;;;33.28;5.82;;;;;;;10.63;61.60;102946.94;5090689;28;20056;-72
2022/01/30 11:14:20;;;;;;;27.27;5.30;;;;;;;11.05;60.08;102938.75;5091090;28;20081;-73
2022/01/30 11:17:03;;;;;;;25.52;5.00;;;;;;;11.86;58.92;102939.72;5091166;28;20062;-73
2022/01/30 11:19:30;;;;;;;25.23;4.72;;;;;;;12.07;54.98;102933.34;5090437;28;20360;-72
2022/01/30 11:22:11;;;;;;;25.73;4.93;;;;;;;12.32;55.23;102937.63;5091257;28;20020;-72
2022/01/30 11:24:47;;;;;;;25.52;4.72;;;;;;;12.15;54.84;102926.53;5090070;28;20107;-73
2022/01/30 11:27:17;;;;;;;29.30;5.85;;;;;;;12.86;49.75;102937.47;5090888;28;20040;-72
2022/01/30 11:29:45;;;;;;;24.48;4.35;;;;;;;13.56;47.67;102932.25;5091189;28;20479;-73
2022/01/30 11:32:11;;;;;;;24.45;4.50;;;;;;;13.02;43.82;102933.47;5091049;28;20024;-72
2022/01/30 11:34:38;;;;;;;24.75;4.75;;;;;;;13.00;44.71;102936.94;5091407;28;20024;-72
2022/01/30 11:37:05;;;;;;;27.15;4.70;;;;;;;13.08;44.07;102938.94;5091178;28;20093;-73
2022/01/30 11:39:31;;;;;;;25.88;4.40;;;;;;;12.32;43.93;102932.31;5091086;28;20073;-72
2022/01/30 11:42:13;;;;;;;23.83;4.50;;;;;;;11.23;47.63;102933.22;5091372;28;20028;-72
2022/01/30 11:44:40;;;;;;;26.50;5.10;;;;;;;10.03;48.23;102939.28;5089405;28;20016;-71
2022/01/30 11:47:07;;;;;;;26.27;4.80;;;;;;;9.75;50.00;102923.22;5090874;28;20024;-72
2022/01/30 11:49:53;;;;;;;28.33;5.25;;;;;;;9.71;53.18;102934.53;5089319;28;20059;-72
2022/01/30 11:52:20;;;;;;;26.13;4.85;;;;;;;11.41;48.94;102926.75;5090736;28;20052;-73
2022/01/30 11:54:50;;;;;;;25.55;4.78;;;;;;;11.18;47.71;102923.31;5091454;28;20544;-71
2022/01/30 11:57:22;;;;;;;23.98;4.75;;;;;;;11.50;47.86;102930.63;5090251;28;20157;-71
2022/01/30 11:59:49;;;;;;;25.50;4.80;;;;;;;10.95;48.57;102920.75;5091115;28;20107;-71
2022/01/30 12:02:43;;;;;;;24.73;4.63;;;;;;;10.52;49.26;102913.91;5091209;28;20078;-71
2022/01/30 12:05:10;;;;;;;28.00;5.18;;;;;;;9.83;50.43;102920.00;5009670;28;20045;-72
2022/01/30 12:07:46;;;;;;;26.00;4.78;;;;;;;10.58;49.47;102919.41;5010180;28;20029;-72
2022/01/30 12:10:21;;;;;;;23.25;3.80;;;;;;;11.78;47.64;102918.28;4993717;28;20046;-72
2022/01/30 12:12:53;;;;;;;23.75;4.28;;;;;;;11.66;46.29;102910.84;5011950;28;20100;-71
2022/01/30 12:15:41;;;;;;;23.83;4.68;;;;;;;10.96;48.46;102911.97;5009878;28;20049;-71
2022/01/30 12:18:08;;;;;;;25.85;4.72;;;;;;;10.69;47.89;102896.91;5008333;28;20034;-71
2022/01/30 12:21:08;;;;;;;23.63;4.15;;;;;;;12.10;46.12;102910.50;5010746;28;20473;-72